^^
Station Historical Data
Daily Summary for January 25, 2017 Units:  Both    English   Metric
« Previous Day
Next Day »
Daily Weekly Monthly Yearly Custom
  High: Low: Average:
Temperature: 83.1 °F /  28.4 °C 63.3 °F /  17.4 °C 68.2 °F /  20.1 °C
Dew Point: 65.3 °F /  18.5 °C 55.9 °F /  13.3 °C 60.1 °F /  15.6 °C
Humidity: 94% 40% 78%
Wind Speed: 8.1mph /  13km/h - 1.2mph /  1.9km/h
Wind Gust: 12.0mph /  19.3km/h - -
Wind- - SE
Pressure: 29.85 in /  1010.7 hPa 29.68 in /  1005 hPa -
Precipitation: 0.83 in /  21.08 mm    
Historical Graphs
 
 
Tabular Data for January 25, 2017
Time Temperature Dew Point Pressure Wind Wind Speed Wind Gust Humidity Rainfall Rate (Hourly) solar Conditions
00:00 64.0 °F /  17.8 °C 59.2 °F /  15.1 °C 29.78in /  1008.4hPa North 2.0mph /  3.2km/h 3.0mph /  4.8km/h 84% 0.00in /  0mm 0.0 W/m2
00:06 64.0 °F /  17.8 °C 58.5 °F /  14.7 °C 29.78in /  1008.4hPa Calm   1.0mph /  1.6km/h 82% 0.00in /  0mm 0.0 W/m2
00:12 64.0 °F /  17.8 °C 59.2 °F /  15.1 °C 29.78in /  1008.4hPa SW 0.9mph /  1.4km/h 2.0mph /  3.2km/h 84% 0.00in /  0mm 0.0 W/m2
00:18 64.2 °F /  17.9 °C 59.4 °F /  15.2 °C 29.78in /  1008.4hPa Calm   3.0mph /  4.8km/h 84% 0.00in /  0mm 0.0 W/m2
00:25 64.0 °F /  17.8 °C 58.5 °F /  14.7 °C 29.78in /  1008.4hPa Calm   2.0mph /  3.2km/h 82% 0.00in /  0mm 0.0 W/m2
00:31 64.0 °F /  17.8 °C 58.5 °F /  14.7 °C 29.78in /  1008.4hPa Calm     82% 0.00in /  0mm 0.0 W/m2
00:37 64.0 °F /  17.8 °C 58.8 °F /  14.9 °C 29.77in /  1008hPa NNE 0.9mph /  1.4km/h 3.0mph /  4.8km/h 83% 0.00in /  0mm 0.0 W/m2
00:43 64.0 °F /  17.8 °C 59.2 °F /  15.1 °C 29.78in /  1008.4hPa Calm   1.0mph /  1.6km/h 84% 0.00in /  0mm 0.0 W/m2
00:49 64.0 °F /  17.8 °C 59.2 °F /  15.1 °C 29.78in /  1008.4hPa Calm     84% 0.00in /  0mm 0.0 W/m2
00:55 64.0 °F /  17.8 °C 59.2 °F /  15.1 °C 29.78in /  1008.4hPa NE 0.9mph /  1.4km/h 2.0mph /  3.2km/h 84% 0.00in /  0mm 0.0 W/m2
01:01 64.0 °F /  17.8 °C 59.2 °F /  15.1 °C 29.77in /  1008hPa Calm     84% 0.00in /  0mm 0.0 W/m2
01:07 64.0 °F /  17.8 °C 59.4 °F /  15.2 °C 29.77in /  1008hPa Calm     85% 0.00in /  0mm 0.0 W/m2
01:13 64.0 °F /  17.8 °C 59.4 °F /  15.2 °C 29.77in /  1008hPa Calm     85% 0.00in /  0mm 0.0 W/m2
01:20 64.2 °F /  17.9 °C 59.5 °F /  15.3 °C 29.76in /  1007.7hPa Calm   1.0mph /  1.6km/h 85% 0.00in /  0mm 0.0 W/m2
01:26 64.0 °F /  17.8 °C 59.4 °F /  15.2 °C 29.76in /  1007.7hPa Calm     85% 0.00in /  0mm 0.0 W/m2
01:32 64.0 °F /  17.8 °C 59.7 °F /  15.4 °C 29.76in /  1007.7hPa Calm     86% 0.00in /  0mm 0.0 W/m2
01:38 64.0 °F /  17.8 °C 59.7 °F /  15.4 °C 29.76in /  1007.7hPa Calm     86% 0.00in /  0mm 0.0 W/m2
01:44 64.2 °F /  17.9 °C 59.9 °F /  15.5 °C 29.76in /  1007.7hPa Calm     86% 0.00in /  0mm 0.0 W/m2
01:50 64.2 °F /  17.9 °C 60.3 °F /  15.7 °C 29.75in /  1007.3hPa Calm     87% 0.00in /  0mm 0.0 W/m2
01:56 64.2 °F /  17.9 °C 59.9 °F /  15.5 °C 29.75in /  1007.3hPa Calm     86% 0.00in /  0mm 0.0 W/m2
02:03 64.2 °F /  17.9 °C 59.9 °F /  15.5 °C 29.75in /  1007.3hPa Calm     86% 0.00in /  0mm 0.0 W/m2
02:09 64.4 °F /  18 °C 60.1 °F /  15.6 °C 29.75in /  1007.3hPa North 0.9mph /  1.4km/h 2.0mph /  3.2km/h 86% 0.00in /  0mm 0.0 W/m2
02:15 64.6 °F /  18.1 °C 60.3 °F /  15.7 °C 29.75in /  1007.3hPa Calm   1.0mph /  1.6km/h 86% 0.00in /  0mm 0.0 W/m2
02:21 64.6 °F /  18.1 °C 60.3 °F /  15.7 °C 29.75in /  1007.3hPa East 0.9mph /  1.4km/h 1.0mph /  1.6km/h 86% 0.00in /  0mm 0.0 W/m2
02:27 64.6 °F /  18.1 °C 60.3 °F /  15.7 °C 29.75in /  1007.3hPa Calm     86% 0.00in /  0mm 0.0 W/m2
02:33 64.6 °F /  18.1 °C 60.3 °F /  15.7 °C 29.75in /  1007.3hPa Calm     86% 0.00in /  0mm 0.0 W/m2
02:39 64.6 °F /  18.1 °C 59.9 °F /  15.5 °C 29.75in /  1007.3hPa Calm     85% 0.00in /  0mm 0.0 W/m2
02:45 64.6 °F /  18.1 °C 59.0 °F /  15 °C 29.75in /  1007.3hPa ENE 2.0mph /  3.2km/h 3.0mph /  4.8km/h 82% 0.00in /  0mm 0.0 W/m2
02:52 64.8 °F /  18.2 °C 58.8 °F /  14.9 °C 29.75in /  1007.3hPa Calm   2.0mph /  3.2km/h 81% 0.00in /  0mm 0.0 W/m2
02:58 65.1 °F /  18.4 °C 58.5 °F /  14.7 °C 29.75in /  1007.3hPa Calm   3.0mph /  4.8km/h 79% 0.00in /  0mm 0.0 W/m2
03:04 65.1 °F /  18.4 °C 58.1 °F /  14.5 °C 29.75in /  1007.3hPa Calm   2.0mph /  3.2km/h 78% 0.00in /  0mm 0.0 W/m2
03:10 65.3 °F /  18.5 °C 58.3 °F /  14.6 °C 29.74in /  1007hPa Calm   3.0mph /  4.8km/h 78% 0.00in /  0mm 0.0 W/m2
03:16 65.3 °F /  18.5 °C 58.3 °F /  14.6 °C 29.74in /  1007hPa Calm   2.0mph /  3.2km/h 78% 0.00in /  0mm 0.0 W/m2
03:22 65.5 °F /  18.6 °C 58.5 °F /  14.7 °C 29.74in /  1007hPa South 0.9mph /  1.4km/h 2.0mph /  3.2km/h 78% 0.00in /  0mm 0.0 W/m2
03:28 65.7 °F /  18.7 °C 59.0 °F /  15 °C 29.74in /  1007hPa Calm   1.0mph /  1.6km/h 79% 0.00in /  0mm 0.0 W/m2
03:35 65.7 °F /  18.7 °C 59.0 °F /  15 °C 29.74in /  1007hPa Calm     79% 0.00in /  0mm 0.0 W/m2
03:41 65.5 °F /  18.6 °C 58.5 °F /  14.7 °C 29.74in /  1007hPa South 1.0mph /  1.6km/h 1.0mph /  1.6km/h 78% 0.00in /  0mm 0.0 W/m2
03:47 65.5 °F /  18.6 °C 59.2 °F /  15.1 °C 29.74in /  1007hPa Calm     80% 0.00in /  0mm 0.0 W/m2
03:53 65.5 °F /  18.6 °C 59.2 °F /  15.1 °C 29.74in /  1007hPa Calm     80% 0.00in /  0mm 0.0 W/m2
03:59 65.3 °F /  18.5 °C 59.0 °F /  15 °C 29.75in /  1007.3hPa Calm   1.0mph /  1.6km/h 80% 0.00in /  0mm 0.0 W/m2
04:05 65.3 °F /  18.5 °C 59.4 °F /  15.2 °C 29.74in /  1007hPa Calm     81% 0.00in /  0mm 0.0 W/m2
04:11 65.3 °F /  18.5 °C 59.4 °F /  15.2 °C 29.74in /  1007hPa Calm     81% 0.00in /  0mm 0.0 W/m2
04:17 65.3 °F /  18.5 °C 59.4 °F /  15.2 °C 29.74in /  1007hPa Calm     81% 0.00in /  0mm 0.0 W/m2
04:24 65.1 °F /  18.4 °C 59.5 °F /  15.3 °C 29.74in /  1007hPa Calm     82% 0.00in /  0mm 0.0 W/m2
04:30 65.1 °F /  18.4 °C 59.5 °F /  15.3 °C 29.74in /  1007hPa Calm     82% 0.00in /  0mm 0.0 W/m2
04:36 65.1 °F /  18.4 °C 59.2 °F /  15.1 °C 29.73in /  1006.7hPa Calm     81% 0.00in /  0mm 0.0 W/m2
04:42 65.1 °F /  18.4 °C 59.5 °F /  15.3 °C 29.73in /  1006.7hPa Calm     82% 0.00in /  0mm 0.0 W/m2
04:48 65.1 °F /  18.4 °C 59.5 °F /  15.3 °C 29.73in /  1006.7hPa Calm     82% 0.00in /  0mm 0.0 W/m2
04:54 65.1 °F /  18.4 °C 59.5 °F /  15.3 °C 29.74in /  1007hPa Calm     82% 0.00in /  0mm 0.0 W/m2
05:00 65.3 °F /  18.5 °C 60.1 °F /  15.6 °C 29.74in /  1007hPa Calm   2.0mph /  3.2km/h 83% 0.00in /  0mm 0.0 W/m2
05:06 65.5 °F /  18.6 °C 61.2 °F /  16.2 °C 29.74in /  1007hPa Calm     86% 0.00in /  0mm 0.0 W/m2
05:13 65.3 °F /  18.5 °C 61.0 °F /  16.1 °C 29.73in /  1006.7hPa Calm   1.0mph /  1.6km/h 86% 0.01in /  0.25mm 0.0 W/m2
05:19 65.1 °F /  18.4 °C 61.2 °F /  16.2 °C 29.73in /  1006.7hPa Calm   2.0mph /  3.2km/h 87% 0.01in /  0.25mm 0.0 W/m2
05:25 64.9 °F /  18.3 °C 61.3 °F /  16.3 °C 29.73in /  1006.7hPa Calm     88% 0.01in /  0.25mm 0.0 W/m2
05:31 64.8 °F /  18.2 °C 61.2 °F /  16.2 °C 29.73in /  1006.7hPa Calm   1.0mph /  1.6km/h 88% 0.01in /  0.25mm 0.0 W/m2
05:37 64.8 °F /  18.2 °C 61.2 °F /  16.2 °C 29.72in /  1006.3hPa Calm   1.0mph /  1.6km/h 88% 0.01in /  0.25mm 0.0 W/m2
05:43 64.6 °F /  18.1 °C 61.0 °F /  16.1 °C 29.72in /  1006.3hPa NE 0.9mph /  1.4km/h 1.0mph /  1.6km/h 88% 0.01in /  0.25mm 0.0 W/m2
05:49 64.6 °F /  18.1 °C 61.3 °F /  16.3 °C 29.72in /  1006.3hPa Calm   3.0mph /  4.8km/h 89% 0.01in /  0.25mm 0.0 W/m2
05:55 64.4 °F /  18 °C 61.2 °F /  16.2 °C 29.72in /  1006.3hPa East 0.9mph /  1.4km/h 1.0mph /  1.6km/h 89% 0.01in /  0.25mm 0.0 W/m2
06:02 64.2 °F /  17.9 °C 61.0 °F /  16.1 °C 29.72in /  1006.3hPa Calm     89% 0.01in /  0.25mm 0.0 W/m2
06:08 64.2 °F /  17.9 °C 61.0 °F /  16.1 °C 29.72in /  1006.3hPa Calm     89% 0.00in /  0mm 0.0 W/m2
06:14 64.2 °F /  17.9 °C 61.0 °F /  16.1 °C 29.72in /  1006.3hPa Calm     89% 0.00in /  0mm 0.0 W/m2
06:20 64.2 °F /  17.9 °C 61.0 °F /  16.1 °C 29.72in /  1006.3hPa Calm     89% 0.00in /  0mm 0.0 W/m2
06:26 64.2 °F /  17.9 °C 61.0 °F /  16.1 °C 29.71in /  1006hPa Calm     89% 0.00in /  0mm 0.0 W/m2
06:32 64.2 °F /  17.9 °C 61.0 °F /  16.1 °C 29.71in /  1006hPa Calm     89% 0.00in /  0mm 7.0 W/m2
06:38 64.2 °F /  17.9 °C 61.0 °F /  16.1 °C 29.71in /  1006hPa Calm     89% 0.00in /  0mm 14.0 W/m2
06:44 64.2 °F /  17.9 °C 61.0 °F /  16.1 °C 29.72in /  1006.3hPa Calm   1.0mph /  1.6km/h 89% 0.00in /  0mm 19.0 W/m2
06:51 64.2 °F /  17.9 °C 61.2 °F /  16.2 °C 29.72in /  1006.3hPa Calm   1.0mph /  1.6km/h 90% 0.00in /  0mm 25.0 W/m2
06:57 64.2 °F /  17.9 °C 61.2 °F /  16.2 °C 29.72in /  1006.3hPa Calm   1.0mph /  1.6km/h 90% 0.00in /  0mm 32.0 W/m2
07:03 64.2 °F /  17.9 °C 61.0 °F /  16.1 °C 29.72in /  1006.3hPa Calm     89% 0.00in /  0mm 35.0 W/m2
07:09 64.2 °F /  17.9 °C 59.5 °F /  15.3 °C 29.72in /  1006.3hPa SSE 4.9mph /  7.9km/h 6.0mph /  9.7km/h 85% 0.00in /  0mm 39.0 W/m2
07:15 64.6 °F /  18.1 °C 57.9 °F /  14.4 °C 29.73in /  1006.7hPa SSE 0.9mph /  1.4km/h 7.0mph /  11.3km/h 79% 0.00in /  0mm 40.0 W/m2
07:21 64.9 °F /  18.3 °C 58.3 °F /  14.6 °C 29.73in /  1006.7hPa SE 0.9mph /  1.4km/h 3.0mph /  4.8km/h 79% 0.00in /  0mm 51.0 W/m2
07:27 65.3 °F /  18.5 °C 58.6 °F /  14.8 °C 29.73in /  1006.7hPa SE 0.9mph /  1.4km/h 2.0mph /  3.2km/h 79% 0.00in /  0mm 54.0 W/m2
07:34 65.7 °F /  18.7 °C 58.3 °F /  14.6 °C 29.74in /  1007hPa South 0.9mph /  1.4km/h 6.0mph /  9.7km/h 77% 0.00in /  0mm 58.0 W/m2
07:40 65.8 °F /  18.8 °C 58.5 °F /  14.7 °C 29.73in /  1006.7hPa South 0.9mph /  1.4km/h 4.0mph /  6.4km/h 77% 0.00in /  0mm 62.0 W/m2
07:46 65.8 °F /  18.8 °C 58.1 °F /  14.5 °C 29.74in /  1007hPa SSE 2.0mph /  3.2km/h 6.0mph /  9.7km/h 76% 0.00in /  0mm 74.0 W/m2
07:52 66.0 °F /  18.9 °C 57.9 °F /  14.4 °C 29.74in /  1007hPa ESE 0.9mph /  1.4km/h 7.0mph /  11.3km/h 75% 0.00in /  0mm 121.0 W/m2
07:58 66.4 °F /  19.1 °C 58.3 °F /  14.6 °C 29.74in /  1007hPa Calm   3.0mph /  4.8km/h 75% 0.00in /  0mm 148.0 W/m2
08:04 66.6 °F /  19.2 °C 58.1 °F /  14.5 °C 29.74in /  1007hPa ENE 2.0mph /  3.2km/h 2.0mph /  3.2km/h 74% 0.00in /  0mm 118.0 W/m2
08:10 66.7 °F /  19.3 °C 58.1 °F /  14.5 °C 29.75in /  1007.3hPa ESE 2.0mph /  3.2km/h 4.0mph /  6.4km/h 74% 0.00in /  0mm 155.0 W/m2
08:17 66.9 °F /  19.4 °C 58.3 °F /  14.6 °C 29.75in /  1007.3hPa Calm   4.0mph /  6.4km/h 74% 0.00in /  0mm 148.0 W/m2
08:23 67.3 °F /  19.6 °C 59.0 °F /  15 °C 29.75in /  1007.3hPa Calm   2.0mph /  3.2km/h 75% 0.00in /  0mm 139.0 W/m2
08:29 67.5 °F /  19.7 °C 59.2 °F /  15.1 °C 29.75in /  1007.3hPa Calm   6.0mph /  9.7km/h 75% 0.00in /  0mm 413.0 W/m2
08:35 68.0 °F /  20 °C 59.7 °F /  15.4 °C 29.75in /  1007.3hPa South 2.9mph /  4.7km/h 5.0mph /  8km/h 75% 0.00in /  0mm 111.0 W/m2
08:41 68.2 °F /  20.1 °C 59.9 °F /  15.5 °C 29.75in /  1007.3hPa SE 2.0mph /  3.2km/h 6.0mph /  9.7km/h 75% 0.00in /  0mm 411.0 W/m2
08:47 68.7 °F /  20.4 °C 60.1 °F /  15.6 °C 29.75in /  1007.3hPa SE 4.0mph /  6.4km/h 6.0mph /  9.7km/h 74% 0.00in /  0mm 557.0 W/m2
08:53 70.0 °F /  21.1 °C 60.6 °F /  15.9 °C 29.75in /  1007.3hPa East 0.9mph /  1.4km/h 5.0mph /  8km/h 72% 0.00in /  0mm 693.0 W/m2
08:59 71.1 °F /  21.7 °C 59.9 °F /  15.5 °C 29.76in /  1007.7hPa East 2.0mph /  3.2km/h 7.0mph /  11.3km/h 68% 0.00in /  0mm 279.0 W/m2
09:01 71.2 °F /  21.8 °C 59.7 °F /  15.4 °C 29.76in /  1007.7hPa East 2.9mph /  4.7km/h 6.0mph /  9.7km/h 67% 0.00in /  0mm 213.0 W/m2
09:07 71.2 °F /  21.8 °C 59.7 °F /  15.4 °C 29.76in /  1007.7hPa Calm   7.0mph /  11.3km/h 67% 0.00in /  0mm 318.0 W/m2
09:14 71.4 °F /  21.9 °C 59.9 °F /  15.5 °C 29.76in /  1007.7hPa ENE 4.9mph /  7.9km/h 9.0mph /  14.5km/h 67% 0.00in /  0mm 438.0 W/m2
09:20 71.8 °F /  22.1 °C 60.3 °F /  15.7 °C 29.76in /  1007.7hPa Calm   6.0mph /  9.7km/h 67% 0.00in /  0mm 387.0 W/m2
09:26 72.1 °F /  22.3 °C 60.1 °F /  15.6 °C 29.76in /  1007.7hPa ENE 2.0mph /  3.2km/h 6.0mph /  9.7km/h 66% 0.00in /  0mm 842.0 W/m2
09:32 72.7 °F /  22.6 °C 60.3 °F /  15.7 °C 29.77in /  1008hPa SSE 0.9mph /  1.4km/h 8.0mph /  12.9km/h 65% 0.00in /  0mm 410.0 W/m2
09:38 72.9 °F /  22.7 °C 59.9 °F /  15.5 °C 29.77in /  1008hPa South 4.0mph /  6.4km/h 8.0mph /  12.9km/h 64% 0.00in /  0mm 364.0 W/m2
09:44 73.0 °F /  22.8 °C 60.1 °F /  15.6 °C 29.77in /  1008hPa SE 4.9mph /  7.9km/h 6.0mph /  9.7km/h 64% 0.00in /  0mm 332.0 W/m2
09:50 73.6 °F /  23.1 °C 60.3 °F /  15.7 °C 29.77in /  1008hPa ESE 6.0mph /  9.7km/h 8.0mph /  12.9km/h 63% 0.00in /  0mm 411.0 W/m2
09:57 73.8 °F /  23.2 °C 59.5 °F /  15.3 °C 29.78in /  1008.4hPa ESE 4.9mph /  7.9km/h 7.0mph /  11.3km/h 61% 0.00in /  0mm 411.0 W/m2
10:09 73.9 °F /  23.3 °C 59.2 °F /  15.1 °C 29.78in /  1008.4hPa ENE 2.0mph /  3.2km/h 5.0mph /  8km/h 60% 0.00in /  0mm 482.0 W/m2
10:15 74.1 °F /  23.4 °C 58.5 °F /  14.7 °C 29.78in /  1008.4hPa NE 2.9mph /  4.7km/h 9.0mph /  14.5km/h 58% 0.00in /  0mm 343.0 W/m2
10:21 74.1 °F /  23.4 °C 59.4 °F /  15.2 °C 29.78in /  1008.4hPa NNE 2.9mph /  4.7km/h 7.0mph /  11.3km/h 60% 0.00in /  0mm 371.0 W/m2
10:27 74.5 °F /  23.6 °C 58.8 °F /  14.9 °C 29.78in /  1008.4hPa East 0.9mph /  1.4km/h 6.0mph /  9.7km/h 58% 0.00in /  0mm 415.0 W/m2
10:33 74.7 °F /  23.7 °C 58.8 °F /  14.9 °C 29.78in /  1008.4hPa NE 6.0mph /  9.7km/h 6.0mph /  9.7km/h 58% 0.00in /  0mm 429.0 W/m2
10:39 74.8 °F /  23.8 °C 60.1 °F /  15.6 °C 29.78in /  1008.4hPa NNE 4.9mph /  7.9km/h 6.0mph /  9.7km/h 60% 0.00in /  0mm 506.0 W/m2
10:46 75.6 °F /  24.2 °C 59.7 °F /  15.4 °C 29.78in /  1008.4hPa NE 2.9mph /  4.7km/h 8.0mph /  12.9km/h 58% 0.00in /  0mm 459.0 W/m2
10:52 75.7 °F /  24.3 °C 59.4 °F /  15.2 °C 29.79in /  1008.7hPa Calm   6.0mph /  9.7km/h 57% 0.00in /  0mm 448.0 W/m2
10:58 75.7 °F /  24.3 °C 59.4 °F /  15.2 °C 29.79in /  1008.7hPa NE 2.0mph /  3.2km/h 7.0mph /  11.3km/h 57% 0.00in /  0mm 413.0 W/m2
11:04 75.7 °F /  24.3 °C 59.4 °F /  15.2 °C 29.79in /  1008.7hPa NNE 4.0mph /  6.4km/h 7.0mph /  11.3km/h 57% 0.00in /  0mm 406.0 W/m2
11:10 75.7 °F /  24.3 °C 59.4 °F /  15.2 °C 29.79in /  1008.7hPa NE 4.0mph /  6.4km/h 10.0mph /  16.1km/h 57% 0.00in /  0mm 431.0 W/m2
11:16 75.9 °F /  24.4 °C 59.2 °F /  15.1 °C 29.78in /  1008.4hPa ENE 4.0mph /  6.4km/h 12.0mph /  19.3km/h 56% 0.00in /  0mm 459.0 W/m2
11:22 76.3 °F /  24.6 °C 59.0 °F /  15 °C 29.78in /  1008.4hPa NE 2.0mph /  3.2km/h 7.0mph /  11.3km/h 55% 0.00in /  0mm 434.0 W/m2
11:28 76.5 °F /  24.7 °C 59.2 °F /  15.1 °C 29.78in /  1008.4hPa NNW 2.0mph /  3.2km/h 5.0mph /  8km/h 55% 0.00in /  0mm 515.0 W/m2
11:35 77.0 °F /  25 °C 59.0 °F /  15 °C 29.78in /  1008.4hPa SW 2.0mph /  3.2km/h 9.0mph /  14.5km/h 54% 0.00in /  0mm 591.0 W/m2
11:41 77.2 °F /  25.1 °C 59.2 °F /  15.1 °C 29.78in /  1008.4hPa East 4.9mph /  7.9km/h 8.0mph /  12.9km/h 54% 0.00in /  0mm 468.0 W/m2
11:47 77.4 °F /  25.2 °C 59.4 °F /  15.2 °C 29.78in /  1008.4hPa NE 0.9mph /  1.4km/h 9.0mph /  14.5km/h 54% 0.00in /  0mm 512.0 W/m2
11:53 78.1 °F /  25.6 °C 59.5 °F /  15.3 °C 29.78in /  1008.4hPa ENE 6.0mph /  9.7km/h 9.0mph /  14.5km/h 53% 0.00in /  0mm 346.0 W/m2
11:59 78.3 °F /  25.7 °C 58.6 °F /  14.8 °C 29.78in /  1008.4hPa NNW 2.9mph /  4.7km/h 9.0mph /  14.5km/h 51% 0.00in /  0mm 664.0 W/m2
12:05 78.3 °F /  25.7 °C 59.2 °F /  15.1 °C 29.78in /  1008.4hPa ESE 0.9mph /  1.4km/h 3.0mph /  4.8km/h 52% 0.00in /  0mm 529.0 W/m2
12:11 78.6 °F /  25.9 °C 57.9 °F /  14.4 °C 29.78in /  1008.4hPa NE 2.9mph /  4.7km/h 9.0mph /  14.5km/h 49% 0.00in /  0mm 744.0 W/m2
12:17 79.5 °F /  26.4 °C 58.1 °F /  14.5 °C 29.78in /  1008.4hPa NNE 4.0mph /  6.4km/h 7.0mph /  11.3km/h 48% 0.00in /  0mm 1179.0 W/m2
12:23 80.2 °F /  26.8 °C 57.6 °F /  14.2 °C 29.78in /  1008.4hPa ESE 2.9mph /  4.7km/h 8.0mph /  12.9km/h 46% 0.00in /  0mm 448.0 W/m2
12:30 80.4 °F /  26.9 °C 57.2 °F /  14 °C 29.77in /  1008hPa ESE 2.0mph /  3.2km/h 6.0mph /  9.7km/h 45% 0.00in /  0mm 1396.0 W/m2
12:36 80.4 °F /  26.9 °C 57.7 °F /  14.3 °C 29.77in /  1008hPa NE 6.0mph /  9.7km/h 7.0mph /  11.3km/h 46% 0.00in /  0mm 313.0 W/m2
12:42 80.8 °F /  27.1 °C 58.1 °F /  14.5 °C 29.77in /  1008hPa East 4.0mph /  6.4km/h 5.0mph /  8km/h 46% 0.00in /  0mm 1266.0 W/m2
12:48 81.7 °F /  27.6 °C 57.6 °F /  14.2 °C 29.77in /  1008hPa ENE 2.0mph /  3.2km/h 9.0mph /  14.5km/h 44% 0.00in /  0mm 1303.0 W/m2
12:54 82.2 °F /  27.9 °C 57.6 °F /  14.2 °C 29.76in /  1007.7hPa NNE 6.0mph /  9.7km/h 11.0mph /  17.7km/h 43% 0.00in /  0mm 1230.0 W/m2
13:00 82.8 °F /  28.2 °C 57.9 °F /  14.4 °C 29.76in /  1007.7hPa NNW 4.9mph /  7.9km/h 8.0mph /  12.9km/h 43% 0.00in /  0mm 640.0 W/m2
13:06 83.1 °F /  28.4 °C 57.0 °F /  13.9 °C 29.76in /  1007.7hPa NNE 6.0mph /  9.7km/h 8.0mph /  12.9km/h 41% 0.00in /  0mm 673.0 W/m2
13:13 82.9 °F /  28.3 °C 56.1 °F /  13.4 °C 29.75in /  1007.3hPa East 2.9mph /  4.7km/h 6.0mph /  9.7km/h 40% 0.00in /  0mm 345.0 W/m2
13:19 82.6 °F /  28.1 °C 56.5 °F /  13.6 °C 29.75in /  1007.3hPa Calm   6.0mph /  9.7km/h 41% 0.00in /  0mm 309.0 W/m2
13:25 82.2 °F /  27.9 °C 56.8 °F /  13.8 °C 29.75in /  1007.3hPa SE 4.0mph /  6.4km/h 8.0mph /  12.9km/h 42% 0.00in /  0mm 362.0 W/m2
13:31 82.0 °F /  27.8 °C 55.9 °F /  13.3 °C 29.75in /  1007.3hPa South 0.9mph /  1.4km/h 9.0mph /  14.5km/h 41% 0.00in /  0mm 432.0 W/m2
13:37 82.0 °F /  27.8 °C 57.4 °F /  14.1 °C 29.74in /  1007hPa ESE 0.9mph /  1.4km/h 5.0mph /  8km/h 43% 0.00in /  0mm 399.0 W/m2
13:43 82.2 °F /  27.9 °C 56.1 °F /  13.4 °C 29.75in /  1007.3hPa Calm   6.0mph /  9.7km/h 41% 0.00in /  0mm 336.0 W/m2
13:49 81.3 °F /  27.4 °C 57.9 °F /  14.4 °C 29.74in /  1007hPa SE 2.0mph /  3.2km/h 8.0mph /  12.9km/h 45% 0.00in /  0mm 378.0 W/m2
13:56 80.1 °F /  26.7 °C 58.6 °F /  14.8 °C 29.74in /  1007hPa SSW 2.0mph /  3.2km/h 7.0mph /  11.3km/h 48% 0.00in /  0mm 239.0 W/m2
14:02 79.0 °F /  26.1 °C 58.1 °F /  14.5 °C 29.74in /  1007hPa SW 0.9mph /  1.4km/h 6.0mph /  9.7km/h 49% 0.00in /  0mm 258.0 W/m2
14:08 78.4 °F /  25.8 °C 58.8 °F /  14.9 °C 29.73in /  1006.7hPa SSW 2.9mph /  4.7km/h 6.0mph /  9.7km/h 51% 0.00in /  0mm 185.0 W/m2
14:14 78.1 °F /  25.6 °C 59.5 °F /  15.3 °C 29.73in /  1006.7hPa WSW 4.0mph /  6.4km/h 5.0mph /  8km/h 53% 0.00in /  0mm 130.0 W/m2
14:20 77.5 °F /  25.3 °C 59.0 °F /  15 °C 29.73in /  1006.7hPa West 0.9mph /  1.4km/h 9.0mph /  14.5km/h 53% 0.00in /  0mm 146.0 W/m2
14:32 76.6 °F /  24.8 °C 59.2 °F /  15.1 °C 29.72in /  1006.3hPa Calm   1.0mph /  1.6km/h 55% 0.00in /  0mm 213.0 W/m2
14:38 76.8 °F /  24.9 °C 59.4 °F /  15.2 °C 29.72in /  1006.3hPa Calm   3.0mph /  4.8km/h 55% 0.00in /  0mm 223.0 W/m2
14:44 77.4 °F /  25.2 °C 58.3 °F /  14.6 °C 29.71in /  1006hPa WSW 2.0mph /  3.2km/h 3.0mph /  4.8km/h 52% 0.00in /  0mm 246.0 W/m2
14:51 77.7 °F /  25.4 °C 57.6 °F /  14.2 °C 29.70in /  1005.6hPa SSW 2.0mph /  3.2km/h 3.0mph /  4.8km/h 50% 0.00in /  0mm 297.0 W/m2
14:57 78.3 °F /  25.7 °C 58.1 °F /  14.5 °C 29.70in /  1005.6hPa SW 2.9mph /  4.7km/h 6.0mph /  9.7km/h 50% 0.00in /  0mm 380.0 W/m2
15:03 78.3 °F /  25.7 °C 58.1 °F /  14.5 °C 29.70in /  1005.6hPa South 0.9mph /  1.4km/h 7.0mph /  11.3km/h 50% 0.00in /  0mm 274.0 W/m2
15:09 78.3 °F /  25.7 °C 57.6 °F /  14.2 °C 29.70in /  1005.6hPa SW 0.9mph /  1.4km/h 4.0mph /  6.4km/h 49% 0.00in /  0mm 218.0 W/m2
15:15 78.1 °F /  25.6 °C 57.9 °F /  14.4 °C 29.70in /  1005.6hPa West 2.9mph /  4.7km/h 6.0mph /  9.7km/h 50% 0.00in /  0mm 193.0 W/m2
15:21 78.1 °F /  25.6 °C 62.6 °F /  17 °C 29.70in /  1005.6hPa SSW 0.9mph /  1.4km/h 2.0mph /  3.2km/h 59% 0.01in /  0.25mm 163.0 W/m2
15:27 77.4 °F /  25.2 °C 62.8 °F /  17.1 °C 29.71in /  1006hPa North 4.0mph /  6.4km/h 10.0mph /  16.1km/h 61% 0.06in /  1.52mm 165.0 W/m2
15:34 75.0 °F /  23.9 °C 63.3 °F /  17.4 °C 29.70in /  1005.6hPa Calm   1.0mph /  1.6km/h 67% 0.08in /  2.03mm 127.0 W/m2
15:40 73.4 °F /  23 °C 63.9 °F /  17.7 °C 29.70in /  1005.6hPa SW 2.0mph /  3.2km/h 3.0mph /  4.8km/h 72% 0.09in /  2.29mm 102.0 W/m2
15:46 72.1 °F /  22.3 °C 64.2 °F /  17.9 °C 29.69in /  1005.3hPa Calm     76% 0.10in /  2.54mm 97.0 W/m2
15:52 71.2 °F /  21.8 °C 64.8 °F /  18.2 °C 29.69in /  1005.3hPa Calm   4.0mph /  6.4km/h 80% 0.10in /  2.54mm 98.0 W/m2
15:58 70.7 °F /  21.5 °C 65.3 °F /  18.5 °C 29.68in /  1005hPa Calm   1.0mph /  1.6km/h 83% 0.10in /  2.54mm 77.0 W/m2
16:04 70.2 °F /  21.2 °C 64.4 °F /  18 °C 29.68in /  1005hPa Calm     82% 0.10in /  2.54mm 44.0 W/m2
16:10 69.6 °F /  20.9 °C 63.1 °F /  17.3 °C 29.70in /  1005.6hPa Calm   2.0mph /  3.2km/h 80% 0.10in /  2.54mm 25.0 W/m2
16:17 69.4 °F /  20.8 °C 63.0 °F /  17.2 °C 29.71in /  1006hPa SW 0.9mph /  1.4km/h 5.0mph /  8km/h 80% 0.10in /  2.54mm 12.0 W/m2
16:23 68.9 °F /  20.5 °C 63.1 °F /  17.3 °C 29.72in /  1006.3hPa SW 2.0mph /  3.2km/h 9.0mph /  14.5km/h 82% 0.09in /  2.29mm 12.0 W/m2
16:29 67.6 °F /  19.8 °C 62.2 °F /  16.8 °C 29.73in /  1006.7hPa SSE 0.9mph /  1.4km/h 8.0mph /  12.9km/h 83% 0.13in /  3.3mm 14.0 W/m2
16:35 66.6 °F /  19.2 °C 61.5 °F /  16.4 °C 29.72in /  1006.3hPa West 2.0mph /  3.2km/h 3.0mph /  4.8km/h 84% 0.30in /  7.62mm 14.0 W/m2
16:41 65.7 °F /  18.7 °C 61.3 °F /  16.3 °C 29.72in /  1006.3hPa NNW 0.9mph /  1.4km/h 6.0mph /  9.7km/h 86% 0.50in /  12.7mm 21.0 W/m2
16:47 64.9 °F /  18.3 °C 61.3 °F /  16.3 °C 29.72in /  1006.3hPa NNW 2.0mph /  3.2km/h 4.0mph /  6.4km/h 88% 0.52in /  13.21mm 21.0 W/m2
16:53 64.6 °F /  18.1 °C 61.3 °F /  16.3 °C 29.73in /  1006.7hPa Calm   1.0mph /  1.6km/h 89% 0.60in /  15.24mm 21.0 W/m2
16:59 64.2 °F /  17.9 °C 61.0 °F /  16.1 °C 29.72in /  1006.3hPa Calm   1.0mph /  1.6km/h 89% 0.64in /  16.26mm 18.0 W/m2
17:06 64.0 °F /  17.8 °C 61.0 °F /  16.1 °C 29.72in /  1006.3hPa Calm     90% 0.65in /  16.51mm 16.0 W/m2
17:12 64.0 °F /  17.8 °C 61.3 °F /  16.3 °C 29.72in /  1006.3hPa Calm   1.0mph /  1.6km/h 91% 0.65in /  16.51mm 16.0 W/m2
17:18 64.0 °F /  17.8 °C 61.7 °F /  16.5 °C 29.72in /  1006.3hPa Calm     92% 0.65in /  16.51mm 21.0 W/m2
17:24 64.2 °F /  17.9 °C 62.2 °F /  16.8 °C 29.72in /  1006.3hPa Calm     93% 0.62in /  15.75mm 25.0 W/m2
17:30 64.2 °F /  17.9 °C 61.9 °F /  16.6 °C 29.72in /  1006.3hPa Calm     92% 0.46in /  11.68mm 25.0 W/m2
17:36 64.4 °F /  18 °C 62.4 °F /  16.9 °C 29.73in /  1006.7hPa Calm     93% 0.28in /  7.11mm 19.0 W/m2
17:42 64.6 °F /  18.1 °C 62.4 °F /  16.9 °C 29.73in /  1006.7hPa Calm   1.0mph /  1.6km/h 93% 0.15in /  3.81mm 19.0 W/m2
17:50 64.6 °F /  18.1 °C 62.2 °F /  16.8 °C 29.73in /  1006.7hPa Calm     92% 0.05in /  1.27mm 19.0 W/m2
18:00 64.0 °F /  17.8 °C 61.3 °F /  16.3 °C 29.74in /  1007hPa WSW 0.9mph /  1.4km/h 2.0mph /  3.2km/h 91% 0.01in /  0.25mm 21.0 W/m2
18:07 64.0 °F /  17.8 °C 61.7 °F /  16.5 °C 29.75in /  1007.3hPa Calm     92% 0.00in /  0mm 16.0 W/m2
18:13 64.0 °F /  17.8 °C 61.7 °F /  16.5 °C 29.75in /  1007.3hPa Calm     92% 0.00in /  0mm 12.0 W/m2
18:19 64.0 °F /  17.8 °C 61.7 °F /  16.5 °C 29.75in /  1007.3hPa Calm     92% 0.00in /  0mm 11.0 W/m2
18:25 64.0 °F /  17.8 °C 61.7 °F /  16.5 °C 29.76in /  1007.7hPa Calm     92% 0.00in /  0mm 9.0 W/m2
18:31 64.0 °F /  17.8 °C 61.7 °F /  16.5 °C 29.76in /  1007.7hPa Calm     92% 0.01in /  0.25mm 9.0 W/m2
18:37 64.0 °F /  17.8 °C 61.7 °F /  16.5 °C 29.76in /  1007.7hPa Calm   1.0mph /  1.6km/h 92% 0.02in /  0.51mm 11.0 W/m2
18:43 64.0 °F /  17.8 °C 61.7 °F /  16.5 °C 29.76in /  1007.7hPa Calm   3.0mph /  4.8km/h 92% 0.02in /  0.51mm 12.0 W/m2
18:50 63.9 °F /  17.7 °C 61.2 °F /  16.2 °C 29.76in /  1007.7hPa WNW 0.9mph /  1.4km/h 1.0mph /  1.6km/h 91% 0.03in /  0.76mm 14.0 W/m2
18:56 63.7 °F /  17.6 °C 61.0 °F /  16.1 °C 29.76in /  1007.7hPa Calm   1.0mph /  1.6km/h 91% 0.04in /  1.02mm 16.0 W/m2
19:02 63.7 °F /  17.6 °C 61.0 °F /  16.1 °C 29.77in /  1008hPa Calm     91% 0.05in /  1.27mm 16.0 W/m2
19:08 63.7 °F /  17.6 °C 61.3 °F /  16.3 °C 29.77in /  1008hPa Calm     92% 0.06in /  1.52mm 14.0 W/m2
19:14 63.5 °F /  17.5 °C 60.8 °F /  16 °C 29.77in /  1008hPa Calm     91% 0.06in /  1.52mm 16.0 W/m2
19:20 63.3 °F /  17.4 °C 61.0 °F /  16.1 °C 29.77in /  1008hPa Calm     92% 0.06in /  1.52mm 14.0 W/m2
19:26 63.5 °F /  17.5 °C 61.2 °F /  16.2 °C 29.77in /  1008hPa Calm     92% 0.06in /  1.52mm 12.0 W/m2
19:34 63.3 °F /  17.4 °C 61.0 °F /  16.1 °C 29.78in /  1008.4hPa Calm   1.0mph /  1.6km/h 92% 0.05in /  1.27mm 5.0 W/m2
19:40 63.3 °F /  17.4 °C 61.0 °F /  16.1 °C 29.78in /  1008.4hPa ESE 0.9mph /  1.4km/h 2.0mph /  3.2km/h 92% 0.04in /  1.02mm 0.0 W/m2
19:46 63.5 °F /  17.5 °C 61.5 °F /  16.4 °C 29.78in /  1008.4hPa Calm   2.0mph /  3.2km/h 93% 0.04in /  1.02mm 0.0 W/m2
19:53 63.5 °F /  17.5 °C 61.2 °F /  16.2 °C 29.78in /  1008.4hPa ENE 2.0mph /  3.2km/h 2.0mph /  3.2km/h 92% 0.03in /  0.76mm 0.0 W/m2
19:59 63.5 °F /  17.5 °C 61.5 °F /  16.4 °C 29.78in /  1008.4hPa Calm   2.0mph /  3.2km/h 93% 0.02in /  0.51mm 0.0 W/m2
20:05 63.5 °F /  17.5 °C 61.5 °F /  16.4 °C 29.78in /  1008.4hPa Calm     93% 0.01in /  0.25mm 0.0 W/m2
20:11 63.3 °F /  17.4 °C 61.3 °F /  16.3 °C 29.79in /  1008.7hPa Calm     93% 0.01in /  0.25mm 0.0 W/m2
20:15 63.3 °F /  17.4 °C 61.3 °F /  16.3 °C 29.79in /  1008.7hPa Calm     93% 0.01in /  0.25mm 0.0 W/m2
20:21 63.5 °F /  17.5 °C 61.5 °F /  16.4 °C 29.79in /  1008.7hPa Calm     93% 0.01in /  0.25mm 0.0 W/m2
20:27 63.7 °F /  17.6 °C 61.9 °F /  16.6 °C 29.80in /  1009hPa Calm   1.0mph /  1.6km/h 94% 0.01in /  0.25mm 0.0 W/m2
20:33 63.7 °F /  17.6 °C 61.9 °F /  16.6 °C 29.80in /  1009hPa Calm   1.0mph /  1.6km/h 94% 0.01in /  0.25mm 0.0 W/m2
20:39 63.7 °F /  17.6 °C 61.9 °F /  16.6 °C 29.80in /  1009hPa Calm     94% 0.01in /  0.25mm 0.0 W/m2
20:45 63.7 °F /  17.6 °C 61.7 °F /  16.5 °C 29.81in /  1009.4hPa Calm     93% 0.00in /  0mm 0.0 W/m2
20:51 63.7 °F /  17.6 °C 61.9 °F /  16.6 °C 29.80in /  1009hPa Calm     94% 0.00in /  0mm 0.0 W/m2
20:58 63.7 °F /  17.6 °C 61.7 °F /  16.5 °C 29.81in /  1009.4hPa Calm     93% 0.00in /  0mm 0.0 W/m2
21:04 63.7 °F /  17.6 °C 61.9 °F /  16.6 °C 29.81in /  1009.4hPa Calm     94% 0.00in /  0mm 0.0 W/m2
21:10 63.9 °F /  17.7 °C 62.1 °F /  16.7 °C 29.83in /  1010hPa SE 0.9mph /  1.4km/h 3.0mph /  4.8km/h 94% 0.00in /  0mm 0.0 W/m2
21:16 63.9 °F /  17.7 °C 62.1 °F /  16.7 °C 29.83in /  1010hPa ESE 2.0mph /  3.2km/h 5.0mph /  8km/h 94% 0.00in /  0mm 0.0 W/m2
21:22 63.9 °F /  17.7 °C 62.1 °F /  16.7 °C 29.83in /  1010hPa Calm   3.0mph /  4.8km/h 94% 0.00in /  0mm 0.0 W/m2
21:28 63.9 °F /  17.7 °C 62.1 °F /  16.7 °C 29.83in /  1010hPa ESE 0.9mph /  1.4km/h 1.0mph /  1.6km/h 94% 0.00in /  0mm 0.0 W/m2
21:34 64.0 °F /  17.8 °C 62.2 °F /  16.8 °C 29.83in /  1010hPa Calm   1.0mph /  1.6km/h 94% 0.00in /  0mm 0.0 W/m2
21:40 64.0 °F /  17.8 °C 62.2 °F /  16.8 °C 29.83in /  1010hPa Calm     94% 0.00in /  0mm 0.0 W/m2
21:46 64.0 °F /  17.8 °C 62.2 °F /  16.8 °C 29.83in /  1010hPa Calm   3.0mph /  4.8km/h 94% 0.00in /  0mm 0.0 W/m2
21:53 64.0 °F /  17.8 °C 62.1 °F /  16.7 °C 29.83in /  1010hPa SE 4.0mph /  6.4km/h 4.0mph /  6.4km/h 93% 0.00in /  0mm 0.0 W/m2
21:59 64.0 °F /  17.8 °C 62.1 °F /  16.7 °C 29.83in /  1010hPa SE 0.9mph /  1.4km/h 5.0mph /  8km/h 93% 0.00in /  0mm 0.0 W/m2
22:05 64.0 °F /  17.8 °C 61.7 °F /  16.5 °C 29.83in /  1010hPa Calm   2.0mph /  3.2km/h 92% 0.00in /  0mm 0.0 W/m2
22:11 63.9 °F /  17.7 °C 61.5 °F /  16.4 °C 29.84in /  1010.4hPa Calm   2.0mph /  3.2km/h 92% 0.00in /  0mm 0.0 W/m2
22:17 63.9 °F /  17.7 °C 61.2 °F /  16.2 °C 29.84in /  1010.4hPa SE 0.9mph /  1.4km/h 5.0mph /  8km/h 91% 0.00in /  0mm 0.0 W/m2
22:23 63.9 °F /  17.7 °C 61.2 °F /  16.2 °C 29.84in /  1010.4hPa SSE 2.9mph /  4.7km/h 3.0mph /  4.8km/h 91% 0.00in /  0mm 0.0 W/m2
22:29 63.9 °F /  17.7 °C 61.2 °F /  16.2 °C 29.84in /  1010.4hPa SE 2.0mph /  3.2km/h 2.0mph /  3.2km/h 91% 0.00in /  0mm 0.0 W/m2
22:35 63.9 °F /  17.7 °C 61.2 °F /  16.2 °C 29.85in /  1010.7hPa Calm   4.0mph /  6.4km/h 91% 0.00in /  0mm 0.0 W/m2
22:41 63.9 °F /  17.7 °C 61.2 °F /  16.2 °C 29.85in /  1010.7hPa Calm   3.0mph /  4.8km/h 91% 0.00in /  0mm 0.0 W/m2
22:47 63.9 °F /  17.7 °C 61.2 °F /  16.2 °C 29.85in /  1010.7hPa SE 4.0mph /  6.4km/h 7.0mph /  11.3km/h 91% 0.00in /  0mm 0.0 W/m2
22:53 63.9 °F /  17.7 °C 60.8 °F /  16 °C 29.85in /  1010.7hPa SE 0.9mph /  1.4km/h 6.0mph /  9.7km/h 90% 0.00in /  0mm 0.0 W/m2
22:59 64.0 °F /  17.8 °C 61.0 °F /  16.1 °C 29.85in /  1010.7hPa SSE 0.9mph /  1.4km/h 4.0mph /  6.4km/h 90% 0.00in /  0mm 0.0 W/m2
23:05 63.9 °F /  17.7 °C 60.8 °F /  16 °C 29.85in /  1010.7hPa SSE 2.0mph /  3.2km/h 5.0mph /  8km/h 90% 0.00in /  0mm 0.0 W/m2
23:11 63.9 °F /  17.7 °C 60.8 °F /  16 °C 29.85in /  1010.7hPa ESE 4.9mph /  7.9km/h 6.0mph /  9.7km/h 90% 0.00in /  0mm 0.0 W/m2
23:17 63.9 °F /  17.7 °C 60.8 °F /  16 °C 29.85in /  1010.7hPa SE 2.9mph /  4.7km/h 4.0mph /  6.4km/h 90% 0.00in /  0mm 0.0 W/m2
23:21 63.9 °F /  17.7 °C 60.8 °F /  16 °C 29.85in /  1010.7hPa Calm   2.0mph /  3.2km/h 90% 0.00in /  0mm 0.0 W/m2
23:27 63.9 °F /  17.7 °C 61.2 °F /  16.2 °C 29.85in /  1010.7hPa Calm   1.0mph /  1.6km/h 91% 0.00in /  0mm 0.0 W/m2
23:33 63.9 °F /  17.7 °C 60.8 °F /  16 °C 29.85in /  1010.7hPa SSW 2.9mph /  4.7km/h 6.0mph /  9.7km/h 90% 0.00in /  0mm 0.0 W/m2
23:40 63.7 °F /  17.6 °C 60.6 °F /  15.9 °C 29.85in /  1010.7hPa SE 8.1mph /  13km/h 9.0mph /  14.5km/h 90% 0.00in /  0mm 0.0 W/m2
23:46 63.7 °F /  17.6 °C 60.6 °F /  15.9 °C 29.84in /  1010.4hPa ESE 4.9mph /  7.9km/h 5.0mph /  8km/h 90% 0.00in /  0mm 0.0 W/m2
23:52 63.7 °F /  17.6 °C 60.6 °F /  15.9 °C 29.84in /  1010.4hPa South 2.9mph /  4.7km/h 7.0mph /  11.3km/h 90% 0.00in /  0mm 0.0 W/m2
23:58 63.7 °F /  17.6 °C 60.4 °F /  15.8 °C 29.84in /  1010.4hPa South 0.9mph /  1.4km/h 8.0mph /  12.9km/h 89% 0.00in /  0mm 0.0 W/m2
Olympia, Windhoek, Namibia
Compliments of Weather Underground - 3 mb